Time;durP1;ratioP1;P1;durP2;ratioP2;P2;SDS_P1;SDS_P2;PMS_P1;PMS_P2;Temp;Humidity;BMP_temperature;BMP_pressure;BME280_temperature;BME280_humidity;BME280_pressure;Samples;Min_cycle;Max_cycle;Signal;HPM_P1;HPM_P2
2022/07/10 00:01:29;;;;;;;6.12;4.58;;;;;;;18.97;67.07;99946.25;1727248;81;21064;-62
2022/07/10 00:03:56;;;;;;;6.72;4.92;;;;;;;18.99;66.92;99947.40;1725954;81;21018;-62
2022/07/10 00:06:23;;;;;;;7.47;5.05;;;;;;;18.96;67.01;99945.11;1723872;81;21049;-62
2022/07/10 00:08:49;;;;;;;8.78;5.37;;;;;;;18.96;67.16;99947.25;1726773;81;21220;-62
2022/07/10 00:11:17;;;;;;;8.78;5.12;;;;;;;18.94;67.26;99947.44;1700223;82;21050;-62
2022/07/10 00:13:44;;;;;;;7.92;5.30;;;;;;;18.92;67.42;99946.81;1717754;82;21048;-62
2022/07/10 00:16:10;;;;;;;7.65;4.62;;;;;;;18.91;67.51;99948.33;1718885;81;21099;-62
2022/07/10 00:18:37;;;;;;;8.90;5.10;;;;;;;18.87;67.50;99939.07;1732304;82;21139;-62
2022/07/10 00:21:04;;;;;;;9.28;5.37;;;;;;;18.85;67.48;99943.77;1713272;82;21102;-62
2022/07/10 00:23:31;;;;;;;6.92;5.15;;;;;;;18.86;67.44;99942.73;1717534;81;21083;-62
2022/07/10 00:25:57;;;;;;;6.45;5.22;;;;;;;18.87;67.50;99937.73;1725159;81;21120;-62
2022/07/10 00:28:24;;;;;;;7.87;5.35;;;;;;;18.90;67.62;99936.03;1687077;83;21055;-62
2022/07/10 00:30:51;;;;;;;6.67;4.67;;;;;;;18.91;67.57;99937.66;1688262;82;21171;-62
2022/07/10 00:33:17;;;;;;;8.45;4.97;;;;;;;18.90;67.65;99931.52;1724877;81;22820;-63
2022/07/10 00:35:44;;;;;;;11.35;5.90;;;;;;;18.90;67.73;99934.19;1726684;81;21516;-62
2022/07/10 00:38:11;;;;;;;8.98;5.25;;;;;;;18.88;67.74;99935.41;1716048;81;21601;-62
2022/07/10 00:40:38;;;;;;;7.67;4.87;;;;;;;18.87;67.67;99933.73;1723349;81;21698;-62
2022/07/10 00:43:10;;;;;;;6.92;5.20;;;;;;;18.88;67.77;99928.73;1721166;81;21540;-62
2022/07/10 00:45:37;;;;;;;7.58;5.42;;;;;;;18.90;67.99;99930.70;1724074;81;21251;-62
2022/07/10 00:48:04;;;;;;;6.85;5.47;;;;;;;18.88;68.26;99927.41;1706853;82;21012;-62
2022/07/10 00:50:31;;;;;;;6.95;5.53;;;;;;;18.83;68.58;99921.78;1725704;81;21083;-61
2022/07/10 00:52:58;;;;;;;6.92;5.30;;;;;;;18.80;68.73;99922.16;1719801;81;21459;-61
2022/07/10 00:55:25;;;;;;;8.03;5.33;;;;;;;18.72;68.67;99925.23;1725615;81;21875;-62
2022/07/10 00:57:52;;;;;;;9.68;5.60;;;;;;;18.65;68.86;99921.66;1720282;81;21889;-62
2022/07/10 01:00:18;;;;;;;7.37;5.28;;;;;;;18.64;68.83;99915.19;1698804;82;21545;-62
2022/07/10 01:02:45;;;;;;;7.08;5.30;;;;;;;18.63;68.82;99920.22;1722335;81;21486;-62
2022/07/10 01:05:12;;;;;;;9.08;5.92;;;;;;;18.59;68.73;99913.08;1716169;81;21493;-62
2022/07/10 01:07:39;;;;;;;9.30;5.33;;;;;;;18.56;68.95;99912.14;1697394;82;21105;-62
2022/07/10 01:10:07;;;;;;;11.78;5.92;;;;;;;18.56;69.04;99906.81;1715361;81;22127;-62
2022/07/10 01:12:36;;;;;;;8.83;5.25;;;;;;;18.53;69.10;99908.52;1694042;82;21113;-62
2022/07/10 01:15:04;;;;;;;10.20;5.40;;;;;;;18.47;69.23;99900.73;1720529;81;21058;-62
2022/07/10 01:17:30;;;;;;;11.80;5.72;;;;;;;18.47;69.30;99899.41;1695907;82;21130;-62
2022/07/10 01:19:57;;;;;;;8.98;5.40;;;;;;;18.44;69.34;99894.48;1719660;81;21034;-62
2022/07/10 01:22:25;;;;;;;7.17;4.83;;;;;;;18.42;69.56;99893.00;1693736;83;21387;-62
2022/07/10 01:24:51;;;;;;;9.18;5.50;;;;;;;18.36;69.82;99892.73;1722269;81;21061;-62
2022/07/10 01:27:18;;;;;;;7.53;5.55;;;;;;;18.29;69.97;99889.17;1683612;82;21133;-62
2022/07/10 01:29:45;;;;;;;7.17;5.33;;;;;;;18.24;70.13;99890.71;1721724;81;21078;-62
2022/07/10 01:32:11;;;;;;;8.28;5.47;;;;;;;18.15;70.14;99885.48;1728481;81;21177;-62
2022/07/10 01:34:38;;;;;;;7.67;5.53;;;;;;;18.09;70.31;99883.58;1727502;81;21119;-62
2022/07/10 01:37:04;;;;;;;8.45;5.15;;;;;;;18.06;70.40;99879.13;1721201;81;21092;-62
2022/07/10 01:39:31;;;;;;;8.48;5.70;;;;;;;18.05;70.62;99878.80;1736076;81;21120;-61
2022/07/10 01:41:58;;;;;;;6.85;5.50;;;;;;;18.07;70.91;99871.45;1737625;81;21064;-62
2022/07/10 01:44:25;;;;;;;8.18;5.80;;;;;;;18.14;70.83;99875.02;1700229;82;21061;-62
2022/07/10 01:46:52;;;;;;;8.35;5.62;;;;;;;18.19;70.60;99869.98;1721104;81;21176;-62
2022/07/10 01:49:18;;;;;;;9.05;5.28;;;;;;;18.21;70.36;99877.28;1700023;82;21061;-62
2022/07/10 01:51:45;;;;;;;9.65;5.10;;;;;;;18.22;70.15;99880.24;1730484;81;21069;-62
2022/07/10 01:54:11;;;;;;;6.95;5.37;;;;;;;18.19;70.17;99877.98;1725588;81;21168;-62
2022/07/10 01:56:38;;;;;;;9.08;6.10;;;;;;;18.19;70.30;99871.32;1712779;81;21074;-62
2022/07/10 01:59:05;;;;;;;9.50;5.53;;;;;;;18.19;70.29;99868.66;1727008;81;21120;-62
2022/07/10 02:01:32;;;;;;;10.80;6.37;;;;;;;18.17;70.24;99870.17;1720940;81;21058;-63
2022/07/10 02:06:44;;;;;;;6.47;5.10;;;;;;;18.05;70.35;99863.64;1728692;81;21147;-62
2022/07/10 02:09:11;;;;;;;8.98;4.75;;;;;;;18.05;70.49;99868.15;1733187;81;21037;-63
2022/07/10 02:11:38;;;;;;;6.60;4.90;;;;;;;18.05;70.68;99865.48;1729164;81;21132;-63
2022/07/10 02:14:04;;;;;;;7.42;5.15;;;;;;;18.00;70.55;99862.03;1726380;83;21041;-64
2022/07/10 02:16:32;;;;;;;8.60;4.70;;;;;;;17.92;70.57;99854.98;1731306;81;22432;-63
2022/07/10 02:18:59;;;;;;;8.05;5.30;;;;;;;17.87;70.74;99861.37;1733837;82;21069;-63
2022/07/10 02:21:25;;;;;;;7.10;4.83;;;;;;;17.87;70.94;99860.52;1735502;81;21147;-62
2022/07/10 02:23:52;;;;;;;6.87;4.40;;;;;;;17.92;70.89;99860.80;1735987;81;21124;-62
2022/07/10 02:26:18;;;;;;;8.38;4.80;;;;;;;17.97;70.71;99864.58;1729401;81;21060;-63
2022/07/10 02:28:45;;;;;;;7.78;5.12;;;;;;;18.05;70.55;99861.49;1736204;81;21125;-63
2022/07/10 02:31:11;;;;;;;7.10;5.08;;;;;;;18.05;70.31;99863.64;1730375;81;21045;-63
2022/07/10 02:33:38;;;;;;;7.15;5.17;;;;;;;17.95;70.42;99867.91;1731962;81;21070;-63
2022/07/10 02:36:05;;;;;;;6.65;4.05;;;;;;;17.85;70.60;99861.18;1736160;81;21136;-63
2022/07/10 02:38:32;;;;;;;8.75;4.12;;;;;;;17.77;70.76;99860.27;1702544;82;21100;-63
2022/07/10 02:40:59;;;;;;;6.20;4.53;;;;;;;17.79;70.95;99862.23;1722454;81;21060;-63
2022/07/10 02:43:26;;;;;;;7.78;4.40;;;;;;;17.84;70.89;99856.37;1695799;82;21087;-63
2022/07/10 02:45:52;;;;;;;7.05;4.42;;;;;;;17.89;70.87;99854.02;1724638;81;21487;-62
2022/07/10 02:48:19;;;;;;;5.95;4.05;;;;;;;17.96;70.73;99854.92;1713670;82;21194;-62
2022/07/10 02:50:45;;;;;;;8.20;5.20;;;;;;;18.04;70.55;99855.35;1721593;81;21124;-64
2022/07/10 02:53:12;;;;;;;6.70;4.83;;;;;;;18.05;70.25;99852.98;1729175;81;21311;-63
2022/07/10 02:55:38;;;;;;;6.85;4.78;;;;;;;18.09;69.98;99856.95;1730726;81;21063;-63
2022/07/10 02:58:06;;;;;;;5.90;4.30;;;;;;;18.11;69.71;99853.59;1727453;81;21599;-63
2022/07/10 03:00:32;;;;;;;6.45;3.98;;;;;;;18.06;69.64;99845.34;1720246;81;21741;-63
2022/07/10 03:02:59;;;;;;;6.53;4.55;;;;;;;17.98;70.00;99842.25;1720923;81;21738;-63
2022/07/10 03:05:25;;;;;;;10.43;4.20;;;;;;;17.89;70.32;99840.71;1727339;81;21062;-62
2022/07/10 03:07:52;;;;;;;6.50;4.03;;;;;;;17.88;70.63;99846.22;1721247;81;21063;-63
2022/07/10 03:10:20;;;;;;;8.55;4.62;;;;;;;17.89;70.61;99847.36;1701378;82;21542;-62
2022/07/10 03:12:47;;;;;;;7.65;4.30;;;;;;;17.96;70.48;99846.94;1710385;82;21145;-62
2022/07/10 03:15:14;;;;;;;6.95;4.15;;;;;;;18.05;70.32;99852.98;1724502;81;21061;-62
2022/07/10 03:17:41;;;;;;;6.87;3.87;;;;;;;18.13;70.12;99850.75;1733215;81;21049;-62
2022/07/10 03:20:09;;;;;;;6.25;4.10;;;;;;;18.20;70.10;99851.65;1728072;81;21163;-63
2022/07/10 03:22:36;;;;;;;6.22;3.92;;;;;;;18.26;69.81;99855.42;1729984;81;21026;-62
2022/07/10 03:25:05;;;;;;;7.33;4.05;;;;;;;18.24;69.63;99858.76;1725421;81;21105;-62
2022/07/10 03:27:32;;;;;;;7.25;3.92;;;;;;;18.23;69.66;99860.61;1732296;81;21023;-62
2022/07/10 03:29:59;;;;;;;5.22;3.67;;;;;;;18.28;69.55;99856.87;1725573;81;21073;-63
2022/07/10 03:46:02;;;;;;;5.65;3.55;;;;;;;19.44;66.01;99846.67;1864846;74;22645;-61
2022/07/10 03:48:29;;;;;;;6.03;3.47;;;;;;;19.49;65.35;99855.73;1830509;76;21025;-64
2022/07/10 03:50:56;;;;;;;7.30;3.65;;;;;;;19.38;65.28;99852.25;1809995;78;21115;-64
2022/07/10 03:53:23;;;;;;;5.58;3.15;;;;;;;19.30;65.59;99861.24;1776489;79;20994;-59
2022/07/10 03:55:50;;;;;;;7.20;4.42;;;;;;;19.31;65.45;99856.20;1767363;79;21121;-59
2022/07/10 03:58:16;;;;;;;6.85;4.53;;;;;;;19.30;65.26;99861.76;1776623;79;21132;-62
2022/07/10 04:00:43;;;;;;;6.53;3.75;;;;;;;19.25;65.03;99856.99;1768078;78;21710;-65
2022/07/10 04:03:10;;;;;;;6.75;3.83;;;;;;;19.27;65.21;99855.47;1800812;78;21989;-59
2022/07/10 04:05:36;;;;;;;5.85;4.00;;;;;;;19.25;65.43;99856.17;1776492;79;21051;-61
2022/07/10 04:08:04;;;;;;;6.15;3.90;;;;;;;19.24;65.28;99855.85;1772221;79;20943;-62
2022/07/10 04:10:31;;;;;;;5.37;3.98;;;;;;;19.24;65.48;99859.33;1770290;79;21053;-61
2022/07/10 04:12:58;;;;;;;5.70;3.62;;;;;;;19.23;65.31;99862.19;1773991;79;21022;-61
2022/07/10 04:15:24;;;;;;;7.65;4.12;;;;;;;19.25;65.21;99857.52;1777987;79;21130;-60
2022/07/10 04:17:51;;;;;;;6.67;4.62;;;;;;;19.28;65.19;99859.28;1781028;79;21550;-61
2022/07/10 04:20:19;;;;;;;7.25;4.65;;;;;;;19.27;64.66;99856.80;1767317;79;21104;-59
2022/07/10 04:22:46;;;;;;;6.22;4.35;;;;;;;19.20;64.73;99851.41;1769294;79;21050;-59
2022/07/10 04:25:12;;;;;;;5.95;4.08;;;;;;;19.17;64.92;99849.13;1798865;78;21575;-59
2022/07/10 04:27:39;;;;;;;6.55;4.53;;;;;;;19.16;65.07;99846.65;1770874;78;21949;-59
2022/07/10 04:30:07;;;;;;;6.90;4.33;;;;;;;19.19;64.89;99847.08;1800288;78;21519;-61
2022/07/10 04:32:34;;;;;;;10.30;4.95;;;;;;;19.28;64.82;99858.44;1774702;79;21108;-60
2022/07/10 04:35:01;;;;;;;9.73;4.10;;;;;;;19.33;64.54;99848.01;1779687;79;21184;-59
2022/07/10 04:37:29;;;;;;;8.35;4.17;;;;;;;19.38;64.49;99852.77;1764421;80;21109;-60
2022/07/10 04:39:55;;;;;;;8.48;4.90;;;;;;;19.40;64.46;99844.91;1773920;80;21273;-59
2022/07/10 04:42:22;;;;;;;5.60;3.65;;;;;;;19.42;64.70;99848.20;1780932;78;21065;-59
2022/07/10 04:44:48;;;;;;;6.67;3.80;;;;;;;19.49;64.33;99842.39;1784862;78;21116;-59
2022/07/10 04:47:14;;;;;;;5.72;3.92;;;;;;;19.60;64.23;99835.72;1783978;79;21093;-59
2022/07/10 04:49:41;;;;;;;8.85;3.85;;;;;;;19.72;63.73;99844.48;1781750;78;21049;-61
2022/07/10 04:52:08;;;;;;;11.30;4.55;;;;;;;19.78;63.22;99846.41;1778058;78;21175;-60
2022/07/10 04:54:34;;;;;;;7.53;4.35;;;;;;;19.80;63.49;99853.22;1776638;78;21057;-62
2022/07/10 04:57:01;;;;;;;5.72;3.65;;;;;;;19.83;63.39;99856.80;1788944;78;21128;-59
2022/07/10 04:59:27;;;;;;;7.22;4.10;;;;;;;19.86;63.19;99853.75;1773562;78;21152;-59
2022/07/10 05:01:55;;;;;;;6.53;3.83;;;;;;;19.91;62.66;99853.69;1801556;78;21168;-60
2022/07/10 05:04:22;;;;;;;6.20;3.83;;;;;;;19.97;62.05;99856.39;1780314;79;21145;-60
2022/07/10 05:06:48;;;;;;;5.67;3.98;;;;;;;19.99;61.77;99853.53;1779531;78;21330;-60
2022/07/10 05:09:15;;;;;;;7.10;3.50;;;;;;;19.99;62.22;99857.02;1768463;78;21148;-59
2022/07/10 05:11:42;;;;;;;5.50;3.80;;;;;;;20.02;61.68;99858.45;1773585;79;21140;-59
2022/07/10 05:14:08;;;;;;;5.22;3.62;;;;;;;20.02;62.08;99862.45;1777231;78;21414;-61
2022/07/10 05:16:35;;;;;;;6.60;4.25;;;;;;;20.06;62.17;99857.05;1798182;78;22641;-60
2022/07/10 05:19:01;;;;;;;6.08;4.17;;;;;;;20.16;62.11;99854.84;1781091;78;21565;-60
2022/07/10 05:21:28;;;;;;;5.83;3.92;;;;;;;20.25;61.22;99858.67;1796769;78;21088;-58
2022/07/10 05:23:55;;;;;;;8.08;4.50;;;;;;;20.29;61.50;99854.08;1779591;78;21104;-61
2022/07/10 05:26:21;;;;;;;6.67;4.30;;;;;;;20.33;61.06;99853.16;1775123;79;21093;-61
2022/07/10 05:28:47;;;;;;;5.90;3.95;;;;;;;20.36;61.37;99848.24;1767610;79;21087;-59
2022/07/10 05:31:14;;;;;;;6.97;3.98;;;;;;;20.41;61.44;99846.31;1774394;79;21093;-58
2022/07/10 05:33:42;;;;;;;6.67;4.65;;;;;;;20.48;61.57;99842.33;1779227;79;21028;-59
2022/07/10 05:36:09;;;;;;;7.17;4.10;;;;;;;20.56;60.91;99837.62;1771623;79;21069;-59
2022/07/10 05:38:35;;;;;;;7.10;4.47;;;;;;;20.60;61.00;99840.19;1776917;79;21260;-60
2022/07/10 05:41:02;;;;;;;7.35;4.55;;;;;;;20.61;61.35;99842.38;1774101;79;21727;-59
2022/07/10 05:43:29;;;;;;;8.03;4.78;;;;;;;20.65;60.72;99842.81;1771826;79;21034;-59
2022/07/10 05:45:56;;;;;;;6.70;4.33;;;;;;;20.66;61.20;99843.11;1773851;79;21045;-60
2022/07/10 05:48:23;;;;;;;6.80;4.50;;;;;;;20.69;61.03;99846.20;1776088;79;21444;-63
2022/07/10 05:50:49;;;;;;;8.18;4.83;;;;;;;20.75;60.83;99845.92;1770316;79;21106;-63
2022/07/10 05:53:19;;;;;;;8.50;4.80;;;;;;;20.81;60.03;99841.08;1776486;79;21141;-61
2022/07/10 05:55:48;;;;;;;6.95;4.40;;;;;;;20.84;60.16;99844.69;1774175;79;21055;-62
2022/07/10 05:58:16;;;;;;;6.50;4.60;;;;;;;20.86;60.26;99838.62;1778016;79;21110;-59
2022/07/10 06:00:43;;;;;;;7.92;4.62;;;;;;;20.87;60.67;99832.25;1772855;79;21199;-60
2022/07/10 06:03:10;;;;;;;8.85;4.47;;;;;;;20.88;60.12;99837.08;1775820;79;21008;-61
2022/07/10 06:05:38;;;;;;;7.15;4.65;;;;;;;20.88;60.37;99836.59;1772067;79;21176;-59
2022/07/10 06:08:05;;;;;;;9.45;4.40;;;;;;;20.93;60.22;99827.44;1774308;79;21481;-62
2022/07/10 06:10:32;;;;;;;9.58;5.10;;;;;;;21.03;59.28;99840.91;1776730;79;21124;-62
2022/07/10 06:12:59;;;;;;;8.65;4.42;;;;;;;21.04;59.33;99831.86;1773608;79;21121;-60
2022/07/10 06:15:25;;;;;;;6.95;4.67;;;;;;;21.08;60.04;99831.75;1772471;78;21069;-59
2022/07/10 06:17:52;;;;;;;8.08;4.62;;;;;;;21.11;59.82;99827.33;1771017;79;21074;-59
2022/07/10 06:20:19;;;;;;;9.33;4.53;;;;;;;21.09;58.60;99829.39;1775780;79;21076;-59
2022/07/10 06:22:45;;;;;;;7.22;4.75;;;;;;;21.05;59.54;99836.20;1774834;79;21536;-58
2022/07/10 06:25:13;;;;;;;8.20;4.37;;;;;;;21.07;59.89;99832.27;1769788;79;21101;-60
2022/07/10 06:27:40;;;;;;;6.70;4.08;;;;;;;21.15;59.45;99829.92;1765920;79;21119;-58
2022/07/10 06:30:08;;;;;;;6.33;4.58;;;;;;;21.22;60.51;99834.75;1770397;79;22057;-58
2022/07/10 06:32:34;;;;;;;7.47;4.72;;;;;;;21.29;59.98;99830.21;1777341;79;21517;-59
2022/07/10 06:35:01;;;;;;;6.80;4.87;;;;;;;21.34;59.54;99829.08;1773840;79;21072;-58
2022/07/10 06:37:28;;;;;;;6.05;4.45;;;;;;;21.36;59.08;99824.05;1779950;79;21554;-58
2022/07/10 06:39:55;;;;;;;8.00;4.22;;;;;;;21.36;59.05;99820.84;1775564;79;21081;-59
2022/07/10 06:42:21;;;;;;;8.18;5.05;;;;;;;21.36;59.44;99817.35;1772903;80;21204;-58
2022/07/10 06:44:52;;;;;;;9.10;5.03;;;;;;;21.42;58.98;99819.21;1773698;79;21116;-58
2022/07/10 06:50:09;;;;;;;8.03;4.97;;;;;;;21.52;59.66;99816.95;1776793;79;21059;-58
2022/07/10 06:52:36;;;;;;;7.55;4.10;;;;;;;21.54;59.55;99814.08;1774541;79;21049;-58
2022/07/10 06:55:03;;;;;;;9.05;4.50;;;;;;;21.55;59.13;99815.17;1778479;79;21137;-59
2022/07/10 06:57:30;;;;;;;7.33;4.58;;;;;;;21.57;59.18;99809.62;1771261;79;21050;-58
2022/07/10 06:59:57;;;;;;;7.15;4.12;;;;;;;21.62;58.46;99804.45;1777893;79;21069;-59
2022/07/10 07:02:24;;;;;;;6.55;4.37;;;;;;;21.64;58.90;99801.89;1774553;79;21117;-59
2022/07/10 07:04:50;;;;;;;6.33;4.28;;;;;;;21.74;58.52;99804.63;1769059;79;21707;-58
2022/07/10 07:07:17;;;;;;;5.95;4.30;;;;;;;21.83;58.36;99799.37;1776269;79;21098;-58
2022/07/10 07:09:44;;;;;;;6.70;4.47;;;;;;;21.88;58.10;99803.05;1773289;79;22088;-59
2022/07/10 07:12:11;;;;;;;6.70;4.08;;;;;;;21.95;58.12;99802.22;1772140;79;21121;-58
2022/07/10 07:14:38;;;;;;;7.33;4.35;;;;;;;22.02;57.53;99800.33;1773569;79;21058;-59
2022/07/10 07:17:09;;;;;;;8.05;4.17;;;;;;;22.08;57.62;99797.62;1776026;79;21572;-59
2022/07/10 07:25:10;;;;;;;7.30;3.92;;;;;;;22.14;56.41;99799.14;1776173;79;21054;-59
2022/07/10 07:27:39;;;;;;;6.10;3.92;;;;;;;22.17;56.30;99808.09;1773387;78;21129;-60
2022/07/10 07:30:14;;;;;;;6.62;4.42;;;;;;;22.18;55.91;99799.84;1771293;79;21046;-59
2022/07/10 07:32:41;;;;;;;6.40;4.30;;;;;;;22.20;56.01;99797.77;1775041;79;21139;-58
2022/07/10 07:35:08;;;;;;;6.15;3.95;;;;;;;22.25;56.15;99798.48;1769222;79;21014;-59
2022/07/10 07:37:44;;;;;;;5.40;3.90;;;;;;;22.31;56.73;99792.80;1778439;79;21026;-58
2022/07/10 07:40:14;;;;;;;7.70;3.90;;;;;;;22.42;55.96;99803.66;1775747;79;22454;-58
2022/07/10 07:42:41;;;;;;;5.65;3.92;;;;;;;22.54;55.79;99797.09;1768413;79;21043;-59
2022/07/10 07:45:09;;;;;;;5.75;4.20;;;;;;;22.61;55.28;99797.06;1771214;79;21203;-58
2022/07/10 07:47:51;;;;;;;10.75;4.28;;;;;;;22.69;55.32;99803.50;1758755;79;21058;-59
2022/07/10 07:50:19;;;;;;;6.40;4.22;;;;;;;22.73;54.46;99806.08;1756147;79;21038;-59
2022/07/10 07:52:46;;;;;;;8.48;4.05;;;;;;;22.77;55.23;99799.75;1759631;79;21037;-58
2022/07/10 07:55:15;;;;;;;5.97;4.30;;;;;;;22.86;55.46;99799.77;1754410;79;21435;-59
2022/07/10 07:57:42;;;;;;;7.15;4.75;;;;;;;22.95;54.71;99794.45;1759972;79;21529;-60
2022/07/10 08:00:13;;;;;;;7.00;4.78;;;;;;;23.05;54.69;99795.31;1757202;79;21065;-60
2022/07/10 08:02:40;;;;;;;7.70;4.70;;;;;;;23.08;54.47;99793.56;1753660;80;21080;-62
2022/07/10 08:05:09;;;;;;;6.67;4.22;;;;;;;23.15;54.50;99792.98;1751853;80;21090;-59
2022/07/10 08:07:44;;;;;;;5.65;3.67;;;;;;;23.27;55.26;99793.61;1780569;78;21042;-59
2022/07/10 08:10:14;;;;;;;6.10;4.27;;;;;;;23.37;54.32;99786.69;1781185;79;21185;-61
2022/07/10 08:12:42;;;;;;;6.85;4.72;;;;;;;23.39;53.75;99783.78;1782233;78;21547;-59
2022/07/10 08:15:12;;;;;;;5.22;3.85;;;;;;;23.44;53.76;99783.12;1784872;78;21062;-61
2022/07/10 08:17:40;;;;;;;7.08;5.25;;;;;;;23.46;53.94;99784.53;1749370;80;21132;-59
2022/07/10 08:20:11;;;;;;;7.53;4.55;;;;;;;23.51;53.07;99790.58;1752884;79;21046;-59
2022/07/10 08:22:39;;;;;;;6.47;4.50;;;;;;;23.49;53.30;99784.62;1748864;80;21091;-59
2022/07/10 08:25:07;;;;;;;6.58;4.78;;;;;;;23.50;54.15;99783.56;1756133;80;21026;-59
2022/07/10 08:27:34;;;;;;;7.45;5.10;;;;;;;23.54;53.94;99783.43;1758633;79;21042;-59
2022/07/10 08:30:00;;;;;;;6.67;4.45;;;;;;;23.59;53.57;99782.73;1759641;79;21574;-59
2022/07/10 08:32:27;;;;;;;7.15;4.80;;;;;;;23.65;52.96;99781.85;1765065;79;21100;-60
2022/07/10 08:34:54;;;;;;;7.45;4.58;;;;;;;23.72;52.79;99781.25;1760336;81;21128;-59
2022/07/10 08:37:20;;;;;;;8.70;4.17;;;;;;;23.78;52.67;99781.70;1756163;80;21053;-59
2022/07/10 08:39:47;;;;;;;6.85;4.75;;;;;;;23.82;52.26;99782.95;1756622;80;21113;-59
2022/07/10 08:42:14;;;;;;;6.47;4.75;;;;;;;23.88;53.10;99775.84;1784761;78;21074;-59
2022/07/10 08:44:40;;;;;;;6.10;4.20;;;;;;;23.95;52.67;99781.95;1783679;79;21093;-59
2022/07/10 08:47:07;;;;;;;5.78;4.22;;;;;;;23.98;52.08;99780.69;1789988;79;21149;-58
2022/07/10 08:49:35;;;;;;;5.75;4.28;;;;;;;24.06;52.22;99776.35;1785123;79;21101;-59
2022/07/10 08:52:16;;;;;;;7.47;4.53;;;;;;;24.14;51.21;99778.73;1798874;79;21046;-58
2022/07/10 08:54:43;;;;;;;6.75;3.77;;;;;;;24.17;50.71;99779.59;1719064;79;21060;-59
2022/07/10 08:57:10;;;;;;;6.65;3.92;;;;;;;24.15;51.12;99778.20;1802898;79;21121;-59
2022/07/10 08:59:36;;;;;;;6.33;4.45;;;;;;;24.15;50.59;99776.86;1793316;79;21099;-59
2022/07/10 09:02:04;;;;;;;5.67;3.95;;;;;;;24.11;51.25;99769.77;1796460;79;21086;-59
2022/07/10 09:04:30;;;;;;;5.87;3.77;;;;;;;24.10;51.50;99775.66;1793108;79;21081;-60
2022/07/10 09:06:57;;;;;;;8.10;4.53;;;;;;;24.12;51.58;99767.36;1790281;79;21062;-59
2022/07/10 09:09:28;;;;;;;6.65;4.10;;;;;;;24.12;51.17;99766.02;1797999;79;21073;-58
2022/07/10 09:11:58;;;;;;;6.58;4.33;;;;;;;24.09;51.14;99767.81;1793132;79;21223;-59
2022/07/10 09:14:27;;;;;;;5.08;3.52;;;;;;;24.09;52.02;99765.97;1801352;79;21937;-59
2022/07/10 09:16:54;;;;;;;5.65;3.60;;;;;;;24.14;51.74;99759.08;1790175;79;21030;-59
2022/07/10 09:19:25;;;;;;;5.22;3.35;;;;;;;24.22;49.32;99762.27;1739344;80;21140;-59
2022/07/10 09:22:07;;;;;;;7.17;3.87;;;;;;;24.30;47.96;99757.91;1754720;81;21667;-58
2022/07/10 09:24:40;;;;;;;5.22;3.40;;;;;;;24.39;49.07;99762.97;1762590;79;21317;-59
2022/07/10 09:27:07;;;;;;;6.08;3.10;;;;;;;24.42;46.69;99759.30;1757208;80;21583;-59
2022/07/10 09:29:51;;;;;;;7.22;3.92;;;;;;;24.46;46.90;99754.27;1757640;79;21580;-61
2022/07/10 09:32:17;;;;;;;4.75;3.17;;;;;;;24.51;47.79;99755.78;1759960;80;21088;-59
2022/07/10 09:36:04;;;;;;;5.47;3.80;;;;;;;24.54;48.29;99754.48;1761131;79;21041;-59
2022/07/10 09:37:26;;;;;;;5.95;3.30;;;;;;;24.54;48.00;99745.88;1750822;79;21370;-58
2022/07/10 09:40:03;;;;;;;5.22;2.98;;;;;;;24.52;47.59;99749.33;1766634;81;21080;-58
2022/07/10 09:42:36;;;;;;;5.75;3.65;;;;;;;24.54;46.13;99746.41;1754755;79;21018;-58
2022/07/10 09:45:16;;;;;;;8.43;3.37;;;;;;;24.56;46.84;99745.68;1760897;80;21062;-59
2022/07/10 09:48:00;;;;;;;5.37;2.87;;;;;;;24.58;45.92;99746.27;1764303;79;23947;-58
2022/07/10 09:50:37;;;;;;;6.97;3.00;;;;;;;24.61;45.47;99744.47;1767638;80;21148;-65
2022/07/10 09:53:06;;;;;;;5.30;2.85;;;;;;;24.64;46.74;99740.78;1772802;79;21011;-60
2022/07/10 09:55:34;;;;;;;4.87;2.83;;;;;;;24.68;46.15;99730.41;1769788;80;21186;-62
2022/07/10 09:58:03;;;;;;;4.55;2.77;;;;;;;24.69;44.92;99733.38;1771720;80;21058;-59
2022/07/10 10:00:36;;;;;;;4.55;2.80;;;;;;;24.68;44.20;99730.41;1770356;80;21067;-60
2022/07/10 10:03:07;;;;;;;5.45;2.72;;;;;;;24.70;43.48;99732.87;1776742;80;21961;-60
2022/07/10 10:05:54;;;;;;;4.50;2.83;;;;;;;24.73;43.41;99733.72;1788119;80;21049;-59
2022/07/10 10:08:30;;;;;;;5.20;3.10;;;;;;;24.77;43.99;99730.88;1752365;80;21082;-60
2022/07/10 10:10:58;;;;;;;6.20;3.05;;;;;;;24.82;44.87;99733.16;1757518;81;21068;-60
2022/07/10 10:13:27;;;;;;;5.22;2.87;;;;;;;24.86;44.10;99725.44;1748954;80;21064;-58
2022/07/10 10:15:54;;;;;;;6.25;3.15;;;;;;;24.87;43.40;99723.05;1760713;80;22355;-60
2022/07/10 10:18:25;;;;;;;5.50;2.85;;;;;;;24.90;43.79;99727.13;1772919;80;21518;-59
2022/07/10 10:20:55;;;;;;;5.17;2.87;;;;;;;24.93;43.91;99718.09;1773951;79;21094;-58
2022/07/10 10:23:25;;;;;;;5.50;2.83;;;;;;;24.97;43.03;99717.90;1773843;80;21105;-59
2022/07/10 10:25:56;;;;;;;5.15;2.87;;;;;;;24.99;43.42;99709.59;1757777;80;21109;-60
2022/07/10 10:28:24;;;;;;;5.30;2.92;;;;;;;25.00;43.35;99708.55;1763021;80;21769;-59
2022/07/10 10:30:57;;;;;;;4.30;2.60;;;;;;;25.01;44.49;99704.79;1772656;80;21503;-58
2022/07/10 10:33:39;;;;;;;4.62;2.72;;;;;;;25.03;44.02;99710.25;1756795;80;21579;-59
2022/07/10 10:36:07;;;;;;;5.20;2.95;;;;;;;25.04;43.92;99712.40;1763866;80;21050;-58
2022/07/10 10:38:57;;;;;;;5.45;2.40;;;;;;;25.09;44.07;99700.94;1761617;80;21126;-59
2022/07/10 10:41:28;;;;;;;6.15;2.65;;;;;;;25.16;43.44;99694.36;1759094;80;22041;-58
2022/07/10 10:44:16;;;;;;;6.40;2.67;;;;;;;25.22;42.26;99696.66;1752294;80;21055;-60
2022/07/10 10:46:56;;;;;;;4.60;2.58;;;;;;;25.21;41.79;99691.78;1766428;79;21794;-60
2022/07/10 10:49:24;;;;;;;4.28;2.27;;;;;;;25.25;42.47;99692.15;1765850;80;21073;-58
2022/07/10 10:52:09;;;;;;;4.17;2.22;;;;;;;25.30;42.96;99688.25;1754355;80;21064;-58
2022/07/10 10:55:04;;;;;;;5.05;2.25;;;;;;;25.35;43.12;99696.44;1767467;80;21282;-60
2022/07/10 10:57:44;;;;;;;4.65;2.58;;;;;;;25.39;42.06;99694.08;1769021;80;20978;-60
2022/07/10 11:00:11;;;;;;;5.12;2.30;;;;;;;25.43;42.28;99686.34;1761429;80;21089;-60
2022/07/10 11:02:39;;;;;;;4.10;2.20;;;;;;;25.46;42.91;99686.68;1734063;80;21385;-59
2022/07/10 11:05:20;;;;;;;4.40;1.98;;;;;;;25.49;42.09;99681.36;1770460;80;21094;-59
2022/07/10 11:08:04;;;;;;;4.17;2.22;;;;;;;25.50;41.26;99687.02;1764205;80;21102;-61
2022/07/10 11:10:45;;;;;;;4.87;2.40;;;;;;;25.56;42.05;99684.73;1766764;80;21048;-60
2022/07/10 11:13:15;;;;;;;5.08;2.65;;;;;;;25.61;42.15;99691.56;1761039;80;21121;-64
2022/07/10 11:15:46;;;;;;;3.95;2.12;;;;;;;25.63;41.38;99686.75;1771369;80;21602;-59
2022/07/10 11:18:16;;;;;;;4.80;2.30;;;;;;;25.68;40.83;99684.16;1767546;80;21580;-59
2022/07/10 11:20:53;;;;;;;4.67;2.45;;;;;;;25.72;41.84;99686.67;1768915;80;21102;-59
2022/07/10 11:24:01;;;;;;;4.22;2.33;;;;;;;25.81;40.73;99691.69;1779999;80;21062;-59
2022/07/10 11:26:36;;;;;;;4.60;2.50;;;;;;;25.88;41.78;99688.31;1767123;80;21093;-61
2022/07/10 11:29:07;;;;;;;5.35;2.20;;;;;;;25.93;41.28;99685.17;1781300;80;21133;-60
2022/07/10 11:31:38;;;;;;;4.15;2.12;;;;;;;25.99;41.63;99681.25;1776259;80;21098;-59
2022/07/10 11:34:02;;;;;;;6.67;2.70;;;;;;;26.04;40.77;99685.38;1785082;79;21178;-60
2022/07/10 11:36:31;;;;;;;5.50;2.70;;;;;;;26.10;40.43;99679.84;1761670;80;21034;-59
2022/07/10 11:39:04;;;;;;;5.87;2.30;;;;;;;26.11;41.03;99680.14;1747181;81;21132;-60
2022/07/10 11:41:32;;;;;;;4.53;2.15;;;;;;;26.12;40.64;99683.11;1779982;80;21499;-60
2022/07/10 11:44:01;;;;;;;4.45;2.05;;;;;;;26.18;40.19;99672.44;1782408;80;21045;-59
2022/07/10 11:46:32;;;;;;;5.35;2.95;;;;;;;26.22;40.40;99679.78;1764321;80;21114;-62
2022/07/10 11:49:01;;;;;;;4.37;2.50;;;;;;;26.24;39.25;99666.05;1774381;78;21066;-60
2022/07/10 11:51:31;;;;;;;4.47;2.60;;;;;;;26.27;39.58;99683.09;1805712;78;21061;-59
2022/07/10 11:54:05;;;;;;;5.28;2.50;;;;;;;26.31;39.20;99682.38;1787009;79;20994;-62
2022/07/10 11:56:34;;;;;;;4.08;1.95;;;;;;;26.37;39.82;99685.97;1785427;78;21047;-59
2022/07/10 11:59:08;;;;;;;3.98;2.30;;;;;;;26.40;38.26;99682.78;1782215;78;21221;-59
2022/07/10 12:01:45;;;;;;;3.95;1.95;;;;;;;26.44;39.14;99688.50;1781492;79;21104;-60
2022/07/10 12:04:17;;;;;;;3.70;2.00;;;;;;;26.50;39.66;99679.45;1789430;78;21037;-60
2022/07/10 12:06:46;;;;;;;5.50;2.60;;;;;;;26.57;39.57;99673.89;1789222;79;21081;-59